Time;durP1;ratioP1;P1;durP2;ratioP2;P2;SDS_P1;SDS_P2;PMS_P1;PMS_P2;Temp;Humidity;BMP_temperature;BMP_pressure;BME280_temperature;BME280_humidity;BME280_pressure;Samples;Min_cycle;Max_cycle;Signal;HPM_P1;HPM_P2
2023/12/15 00:02:12;;;;;;;0.23;0.23;;;;;;;15.01;56.71;102780.34;5049114;28;20037;-77
2023/12/15 00:04:37;;;;;;;0.23;0.23;;;;;;;15.72;54.18;102779.53;5065291;28;20036;-78
2023/12/15 00:07:03;;;;;;;0.20;0.20;;;;;;;15.35;54.66;102785.69;5066450;28;20032;-78
2023/12/15 00:09:28;;;;;;;2.17;0.83;;;;;;;15.12;56.39;102776.88;5063605;28;20120;-77
2023/12/15 00:11:53;;;;;;;0.50;0.50;;;;;;;16.10;52.96;102795.34;5055387;28;20472;-77
2023/12/15 00:14:19;;;;;;;0.30;0.30;;;;;;;15.98;53.62;102789.19;5059364;28;20515;-78
2023/12/15 00:16:44;;;;;;;2.30;1.53;;;;;;;15.22;55.24;102789.16;5049491;28;20017;-77
2023/12/15 00:19:09;;;;;;;0.17;0.17;;;;;;;16.14;52.88;102782.16;5050047;28;20064;-77
2023/12/15 00:21:35;;;;;;;0.93;0.93;;;;;;;15.37;55.15;102778.66;5049574;28;20036;-78
2023/12/15 00:24:02;;;;;;;1.80;0.90;;;;;;;15.34;54.64;102791.81;5056178;28;20028;-77
2023/12/15 00:26:27;;;;;;;2.10;1.90;;;;;;;15.63;53.78;102812.03;5068033;28;20042;-77
2023/12/15 00:28:53;;;;;;;0.00;0.00;;;;;;;15.75;53.56;102817.31;5051934;28;20028;-77
2023/12/15 00:31:18;;;;;;;0.00;0.00;;;;;;;15.89;53.48;102824.38;5062579;28;20111;-78
2023/12/15 00:33:43;;;;;;;1.70;1.07;;;;;;;15.99;53.04;102828.78;5053816;28;20052;-78
2023/12/15 00:36:09;;;;;;;1.00;1.00;;;;;;;15.98;52.47;102819.09;5073532;28;20031;-78
2023/12/15 00:38:34;;;;;;;0.40;0.40;;;;;;;16.23;52.56;102819.94;5058747;28;20498;-77
2023/12/15 00:41:03;;;;;;;12.50;2.03;;;;;;;15.56;54.29;102805.00;5069166;28;20025;-78
2023/12/15 00:43:28;;;;;;;2.23;0.40;;;;;;;15.37;54.43;102805.03;5052024;28;20131;-78
2023/12/15 00:45:53;;;;;;;0.00;0.00;;;;;;;15.38;54.78;102808.50;5063404;28;20577;-78
2023/12/15 00:48:19;;;;;;;0.10;0.10;;;;;;;15.40;54.96;102805.00;5044119;28;20040;-78
2023/12/15 00:50:44;;;;;;;0.70;0.70;;;;;;;15.65;53.80;102810.31;5064076;28;20021;-78
2023/12/15 00:53:09;;;;;;;13.50;1.70;;;;;;;15.42;54.68;102808.50;5052584;28;20033;-77
2023/12/15 00:55:35;;;;;;;0.10;0.10;;;;;;;14.89;56.58;102811.91;5052190;28;20025;-77
2023/12/15 00:58:00;;;;;;;0.40;0.40;;;;;;;14.65;57.61;102824.09;5052803;28;20366;-77
2023/12/15 01:00:25;;;;;;;0.57;0.57;;;;;;;15.10;56.73;102822.50;5062689;28;20177;-78
2023/12/15 01:02:51;;;;;;;0.00;0.00;;;;;;;16.11;53.69;102827.88;5070035;28;20036;-78
2023/12/15 01:05:16;;;;;;;0.27;0.27;;;;;;;15.27;55.08;102819.91;5061323;28;20031;-78
2023/12/15 01:07:41;;;;;;;1.60;0.93;;;;;;;16.02;53.14;102839.31;5066386;28;20525;-78
2023/12/15 01:10:07;;;;;;;1.40;0.73;;;;;;;15.77;54.07;102823.47;5059540;28;20031;-78
2023/12/15 01:12:32;;;;;;;0.00;0.00;;;;;;;16.01;53.49;102823.50;5072323;28;20020;-77
2023/12/15 01:14:58;;;;;;;0.30;0.30;;;;;;;15.96;53.63;102831.41;5048866;28;20039;-78
2023/12/15 01:17:23;;;;;;;0.40;0.40;;;;;;;15.52;55.24;102829.59;5051542;28;20029;-77
2023/12/15 01:19:48;;;;;;;0.97;0.97;;;;;;;15.92;53.97;102835.81;5056631;28;20480;-78
2023/12/15 01:22:14;;;;;;;0.67;0.60;;;;;;;15.74;54.59;102831.41;5071835;28;20388;-78
2023/12/15 01:24:39;;;;;;;1.70;0.87;;;;;;;15.96;54.10;102827.91;5057101;28;20068;-78
2023/12/15 01:27:05;;;;;;;2.27;2.07;;;;;;;15.73;54.83;102827.00;5053215;28;20032;-77
2023/12/15 01:29:30;;;;;;;0.40;0.40;;;;;;;15.85;54.39;102833.16;5053907;28;20032;-78
2023/12/15 01:31:55;;;;;;;0.00;0.00;;;;;;;15.30;56.29;102842.75;5071778;28;20035;-78
2023/12/15 01:34:21;;;;;;;0.03;0.03;;;;;;;15.52;55.20;102840.16;5053182;28;20021;-78
2023/12/15 01:36:46;;;;;;;0.27;0.27;;;;;;;15.19;55.75;102841.84;5086234;28;20024;-77
2023/12/15 01:39:11;;;;;;;0.00;0.00;;;;;;;15.25;55.60;102841.88;5071143;28;20025;-77
2023/12/15 01:41:37;;;;;;;1.13;1.03;;;;;;;15.54;55.06;102841.06;5054754;28;20051;-78
2023/12/15 01:44:02;;;;;;;0.70;0.37;;;;;;;15.94;53.82;102849.00;5066496;28;20081;-77
2023/12/15 01:46:28;;;;;;;0.30;0.30;;;;;;;16.18;52.76;102847.22;5048613;28;20025;-77
2023/12/15 01:48:54;;;;;;;0.00;0.00;;;;;;;16.37;52.46;102854.19;5038973;28;20078;-78
2023/12/15 01:51:19;;;;;;;0.10;0.10;;;;;;;15.90;53.98;102863.06;5054301;28;20029;-77
2023/12/15 01:53:44;;;;;;;7.10;0.73;;;;;;;15.24;55.55;102866.47;5051907;28;20087;-77
2023/12/15 01:56:10;;;;;;;0.63;0.63;;;;;;;15.87;54.05;102876.25;5063588;28;20063;-77
2023/12/15 01:58:35;;;;;;;0.27;0.27;;;;;;;16.15;53.25;102881.50;5071666;28;20012;-78
2023/12/15 02:01:01;;;;;;;0.97;0.93;;;;;;;16.28;52.94;102891.19;5061311;28;20086;-78
2023/12/15 02:03:26;;;;;;;0.73;0.73;;;;;;;16.33;52.96;102877.97;5051603;28;20025;-77
2023/12/15 02:05:52;;;;;;;2.10;0.70;;;;;;;16.47;52.10;102880.56;5059522;28;20037;-77
2023/12/15 02:08:17;;;;;;;0.10;0.10;;;;;;;16.74;51.10;102891.06;5071541;28;20024;-77
2023/12/15 02:10:43;;;;;;;0.00;0.00;;;;;;;16.45;52.20;102905.22;5066217;28;20041;-77
2023/12/15 02:13:08;;;;;;;0.13;0.13;;;;;;;16.92;51.15;102911.28;5051827;28;20089;-77
2023/12/15 02:15:34;;;;;;;0.57;0.50;;;;;;;16.32;51.72;102929.88;5071072;28;20033;-78
2023/12/15 02:18:02;;;;;;;0.87;0.87;;;;;;;16.22;53.15;102928.13;5055260;28;20025;-78
2023/12/15 02:20:28;;;;;;;0.13;0.13;;;;;;;16.70;51.41;102931.56;5040304;28;20043;-77
2023/12/15 02:22:53;;;;;;;1.23;1.13;;;;;;;16.27;52.88;102936.91;5072339;28;20492;-77
2023/12/15 02:25:18;;;;;;;0.20;0.20;;;;;;;16.15;53.04;102937.78;5062667;28;20356;-78
2023/12/15 02:27:44;;;;;;;1.60;0.47;;;;;;;16.39;52.19;102936.91;5071267;28;20075;-77
2023/12/15 02:30:09;;;;;;;3.53;1.97;;;;;;;16.96;51.22;102938.56;5059362;28;20032;-78
2023/12/15 02:32:35;;;;;;;0.20;0.20;;;;;;;16.27;52.52;102931.63;5060481;28;20029;-78
2023/12/15 02:35:00;;;;;;;0.00;0.00;;;;;;;16.47;52.21;102941.28;5051010;28;20107;-77
2023/12/15 02:37:27;;;;;;;0.50;0.50;;;;;;;16.26;52.85;102941.28;5066871;28;20035;-78
2023/12/15 02:39:52;;;;;;;0.73;0.73;;;;;;;16.78;51.03;102945.63;5064262;28;20062;-77
2023/12/15 02:42:18;;;;;;;0.10;0.10;;;;;;;16.69;51.08;102940.38;5057765;28;20102;-78
2023/12/15 02:44:44;;;;;;;3.30;2.27;;;;;;;16.25;52.16;102943.94;5047425;28;20049;-78
2023/12/15 02:47:09;;;;;;;0.40;0.20;;;;;;;16.63;51.58;102945.66;5052596;28;20099;-78
2023/12/15 02:49:41;;;;;;;0.00;0.00;;;;;;;16.22;52.89;102954.50;5050194;28;20028;-78
2023/12/15 02:52:07;;;;;;;0.10;0.10;;;;;;;16.04;53.28;102961.50;5061498;28;20031;-78
2023/12/15 02:54:33;;;;;;;0.20;0.20;;;;;;;15.97;53.77;102970.31;5051619;28;20480;-77
2023/12/15 02:56:58;;;;;;;3.40;2.57;;;;;;;16.21;53.00;102961.53;5060413;28;20034;-76
2023/12/15 02:59:24;;;;;;;0.10;0.10;;;;;;;16.60;52.04;102969.44;5066171;28;20029;-78
2023/12/15 03:01:49;;;;;;;0.00;0.00;;;;;;;16.19;52.97;102975.63;5058835;28;20060;-78
2023/12/15 03:04:14;;;;;;;0.90;0.87;;;;;;;16.47;52.63;102981.75;5047419;28;20485;-77
2023/12/15 03:06:40;;;;;;;0.33;0.33;;;;;;;16.88;51.21;102979.94;5044131;28;20029;-78
2023/12/15 03:09:05;;;;;;;0.30;0.30;;;;;;;16.65;51.74;102983.53;5069959;28;20021;-78
2023/12/15 03:11:31;;;;;;;0.00;0.00;;;;;;;16.45;52.82;102976.47;5051103;28;20389;-78
2023/12/15 03:13:56;;;;;;;0.10;0.10;;;;;;;16.34;52.83;102975.59;5066408;28;20032;-78
2023/12/15 03:16:24;;;;;;;0.83;0.83;;;;;;;16.08;53.54;102979.09;5050399;28;20092;-78
2023/12/15 03:18:49;;;;;;;0.40;0.40;;;;;;;16.19;53.34;102978.25;5070147;28;20013;-78
2023/12/15 03:21:14;;;;;;;0.00;0.00;;;;;;;15.99;54.17;102981.75;5053059;28;20033;-78
2023/12/15 03:23:40;;;;;;;0.83;0.73;;;;;;;15.88;54.79;102991.38;5056277;28;20395;-78
2023/12/15 03:26:06;;;;;;;0.33;0.33;;;;;;;16.25;54.00;102991.44;5049281;28;20025;-78
2023/12/15 03:28:31;;;;;;;0.17;0.17;;;;;;;16.01;53.96;102992.31;5068667;28;20028;-78
2023/12/15 03:30:57;;;;;;;0.20;0.20;;;;;;;16.38;53.19;102998.47;5054971;28;20052;-78
2023/12/15 03:33:25;;;;;;;0.23;0.23;;;;;;;15.75;54.11;103001.00;5066105;28;20044;-78
2023/12/15 03:35:51;;;;;;;0.50;0.50;;;;;;;16.76;52.21;102991.41;5070007;28;20024;-78
2023/12/15 03:38:18;;;;;;;1.33;1.13;;;;;;;15.86;54.58;102999.28;5062889;28;20027;-78
2023/12/15 03:40:44;;;;;;;0.00;0.00;;;;;;;16.25;53.16;102996.72;5056752;28;20057;-78
2023/12/15 03:43:09;;;;;;;0.73;0.73;;;;;;;16.03;54.75;103009.91;5079651;28;20052;-77
2023/12/15 03:45:35;;;;;;;0.43;0.43;;;;;;;16.85;52.31;103003.72;5070141;28;20131;-78
2023/12/15 03:48:03;;;;;;;0.07;0.07;;;;;;;16.23;53.39;103009.03;5066614;28;20036;-79
2023/12/15 03:50:29;;;;;;;0.00;0.00;;;;;;;16.67;52.40;103008.16;5059054;28;20025;-78
2023/12/15 03:52:54;;;;;;;0.23;0.23;;;;;;;16.67;52.63;103010.78;5060645;28;20021;-78
2023/12/15 03:55:20;;;;;;;0.87;0.83;;;;;;;16.75;52.45;103014.28;5070603;28;20028;-78
2023/12/15 03:57:46;;;;;;;0.60;0.60;;;;;;;16.78;52.55;103014.28;5058730;28;20476;-78
2023/12/15 04:00:12;;;;;;;1.80;0.63;;;;;;;16.72;52.63;103014.31;5048381;28;20029;-78
2023/12/15 04:02:37;;;;;;;0.10;0.10;;;;;;;16.43;52.98;103017.84;5057010;28;20033;-78
2023/12/15 04:05:03;;;;;;;0.00;0.00;;;;;;;16.42;52.77;103021.34;5069590;28;20082;-77
2023/12/15 04:07:28;;;;;;;3.20;2.70;;;;;;;16.52;52.77;103037.19;5060994;28;20028;-78
2023/12/15 04:09:54;;;;;;;3.93;1.27;;;;;;;16.65;52.75;103033.69;5067547;28;20028;-78
2023/12/15 04:12:19;;;;;;;0.30;0.30;;;;;;;16.67;52.93;103038.97;5054297;28;20025;-78
2023/12/15 04:14:44;;;;;;;0.20;0.20;;;;;;;16.41;53.22;103040.69;5061902;28;20104;-78
2023/12/15 04:17:10;;;;;;;0.00;0.00;;;;;;;16.57;53.38;103046.00;5052490;28;20113;-78
2023/12/15 04:19:35;;;;;;;0.10;0.10;;;;;;;16.38;53.17;103050.41;5065507;28;20028;-78
2023/12/15 04:22:00;;;;;;;0.00;0.00;;;;;;;16.95;52.97;103046.00;5053338;28;20024;-77
2023/12/15 04:24:26;;;;;;;0.83;0.83;;;;;;;16.63;52.95;103061.84;5060072;28;20108;-78
2023/12/15 04:26:52;;;;;;;0.23;0.23;;;;;;;16.88;52.65;103053.88;5049528;28;20049;-78
2023/12/15 04:29:18;;;;;;;0.37;0.37;;;;;;;16.73;52.93;103050.41;5056826;28;20090;-77
2023/12/15 04:31:43;;;;;;;0.30;0.30;;;;;;;16.31;53.46;103046.88;5073261;28;20032;-78
2023/12/15 04:34:09;;;;;;;0.00;0.00;;;;;;;16.61;53.22;103047.75;5062524;28;20032;-78
2023/12/15 04:36:35;;;;;;;0.43;0.43;;;;;;;16.61;52.89;103050.41;5052763;28;20434;-78
2023/12/15 04:39:00;;;;;;;0.00;0.00;;;;;;;16.63;53.31;103059.19;5061050;28;20025;-78
2023/12/15 04:41:27;;;;;;;0.00;0.00;;;;;;;16.67;53.26;103063.59;5073611;28;20052;-77
2023/12/15 04:43:52;;;;;;;0.20;0.20;;;;;;;16.53;52.85;103070.66;5066586;28;20048;-78
2023/12/15 04:46:27;;;;;;;0.07;0.07;;;;;;;17.02;52.71;103065.38;5068407;28;20102;-78
2023/12/15 04:48:54;;;;;;;0.33;0.33;;;;;;;17.35;51.07;103060.00;5054112;28;20163;-77
2023/12/15 04:51:20;;;;;;;0.00;0.00;;;;;;;16.95;52.20;103068.88;5064342;28;20029;-78
2023/12/15 04:53:47;;;;;;;0.00;0.00;;;;;;;17.29;51.21;103074.09;5056880;28;20085;-77
2023/12/15 04:56:13;;;;;;;0.00;0.00;;;;;;;17.63;50.75;103081.94;5043338;28;20497;-77
2023/12/15 04:58:39;;;;;;;0.00;0.00;;;;;;;17.92;49.75;103091.53;5051767;28;20091;-78
2023/12/15 05:01:04;;;;;;;0.07;0.07;;;;;;;17.70;49.80;103096.88;5073428;28;20036;-78
2023/12/15 05:03:31;;;;;;;0.20;0.20;;;;;;;17.06;50.98;103092.66;5056397;28;20029;-77
2023/12/15 05:05:56;;;;;;;0.00;0.00;;;;;;;17.12;51.03;103101.44;5044889;28;20044;-78
2023/12/15 05:08:22;;;;;;;0.00;0.00;;;;;;;17.16;51.13;103090.84;5034449;28;20026;-78
2023/12/15 05:10:47;;;;;;;0.40;0.40;;;;;;;17.25;51.24;103093.50;5068828;28;20139;-78
2023/12/15 05:13:13;;;;;;;0.00;0.00;;;;;;;17.15;50.98;103083.84;5071992;28;20357;-77
2023/12/15 05:15:38;;;;;;;0.10;0.10;;;;;;;16.86;52.22;103095.28;5059370;28;20114;-77
2023/12/15 05:18:04;;;;;;;3.20;2.07;;;;;;;17.26;51.33;103098.78;5045683;28;20017;-77
2023/12/15 05:20:31;;;;;;;0.00;0.00;;;;;;;17.00;51.78;103109.38;5050973;28;20396;-77
2023/12/15 05:22:57;;;;;;;0.10;0.10;;;;;;;17.03;51.89;103124.34;5052297;28;20032;-77
2023/12/15 05:25:22;;;;;;;0.00;0.00;;;;;;;17.19;51.41;103125.22;5066475;28;20388;-77
2023/12/15 05:27:47;;;;;;;0.10;0.10;;;;;;;17.48;50.82;103132.22;5061156;28;20028;-78
2023/12/15 05:30:13;;;;;;;0.27;0.27;;;;;;;17.17;51.69;103138.41;5057246;28;20021;-77
2023/12/15 05:32:38;;;;;;;0.00;0.00;;;;;;;17.15;51.74;103141.97;5052886;28;20029;-77
2023/12/15 05:35:04;;;;;;;0.10;0.10;;;;;;;16.68;52.86;103127.81;5062545;28;20465;-77
2023/12/15 05:37:30;;;;;;;1.90;0.67;;;;;;;16.81;52.37;103129.59;5063379;28;20016;-78
2023/12/15 05:39:57;;;;;;;0.20;0.20;;;;;;;16.99;51.64;103123.47;5062868;28;20382;-77
2023/12/15 05:42:23;;;;;;;0.00;0.00;;;;;;;16.79;52.29;103126.97;5061312;28;20025;-78
2023/12/15 05:44:48;;;;;;;0.03;0.03;;;;;;;17.23;51.09;103119.06;5060508;28;20152;-77
2023/12/15 05:47:14;;;;;;;0.17;0.17;;;;;;;16.92;51.59;103119.94;5064357;28;20051;-77
2023/12/15 05:49:40;;;;;;;0.30;0.30;;;;;;;16.68;52.79;103118.16;5064967;28;20312;-78
2023/12/15 05:52:08;;;;;;;0.00;0.00;;;;;;;16.96;52.43;103123.47;5070665;28;20538;-78
2023/12/15 05:54:33;;;;;;;0.27;0.27;;;;;;;16.90;52.23;103123.50;5066558;28;20039;-78
2023/12/15 05:56:58;;;;;;;22.17;1.13;;;;;;;16.59;53.18;103139.28;5052603;28;20095;-78
2023/12/15 05:59:24;;;;;;;0.10;0.10;;;;;;;16.76;52.31;103137.53;5053775;28;20043;-78
2023/12/15 06:01:49;;;;;;;0.50;0.43;;;;;;;17.32;51.01;103148.09;5062992;28;20029;-78
2023/12/15 06:04:14;;;;;;;0.17;0.17;;;;;;;16.85;52.63;103151.63;5049918;28;20115;-78
2023/12/15 06:06:40;;;;;;;0.07;0.07;;;;;;;16.76;52.70;103153.38;5069226;28;20013;-79
2023/12/15 06:09:05;;;;;;;0.23;0.23;;;;;;;16.87;52.78;103153.41;5047836;28;20025;-78
2023/12/15 06:11:30;;;;;;;1.13;1.13;;;;;;;17.16;52.05;103151.63;5086139;28;20036;-78
2023/12/15 06:13:56;;;;;;;0.17;0.17;;;;;;;17.05;52.38;103149.91;5070751;28;20123;-78
2023/12/15 06:16:22;;;;;;;0.00;0.00;;;;;;;16.82;52.57;103155.13;5053480;28;20071;-78
2023/12/15 06:18:48;;;;;;;0.10;0.10;;;;;;;17.13;51.94;103153.41;5047473;28;20029;-78
2023/12/15 06:21:24;;;;;;;3.73;1.40;;;;;;;17.03;51.74;103167.50;5058682;28;20524;-78
2023/12/15 06:23:50;;;;;;;0.70;0.70;;;;;;;16.77;52.80;103164.81;5041507;28;20036;-78
2023/12/15 06:26:19;;;;;;;0.00;0.00;;;;;;;17.38;50.78;103166.59;5052195;28;20096;-78
2023/12/15 06:28:45;;;;;;;0.10;0.10;;;;;;;16.94;51.73;103162.25;5046719;28;20127;-78
2023/12/15 06:31:11;;;;;;;0.07;0.07;;;;;;;17.44;51.05;103168.34;5062514;28;20103;-78
2023/12/15 06:33:36;;;;;;;0.50;0.50;;;;;;;17.27;51.42;103171.03;5070304;28;20029;-78
2023/12/15 06:36:01;;;;;;;1.40;0.90;;;;;;;17.18;51.08;103171.03;5057961;28;20587;-78
2023/12/15 06:38:27;;;;;;;0.90;0.90;;;;;;;17.46;50.99;103167.47;5069159;28;20020;-78
2023/12/15 06:40:52;;;;;;;0.10;0.10;;;;;;;17.37;50.40;103182.47;5050319;28;20094;-79
2023/12/15 06:43:17;;;;;;;0.33;0.33;;;;;;;16.61;53.16;103185.94;5050110;28;20059;-78
2023/12/15 06:45:43;;;;;;;0.00;0.00;;;;;;;17.18;51.57;103181.59;5048667;28;20499;-78
2023/12/15 06:48:08;;;;;;;0.60;0.60;;;;;;;17.67;50.17;103202.69;5036924;28;20037;-79
2023/12/15 06:50:33;;;;;;;0.40;0.40;;;;;;;17.27;51.39;103218.59;5049092;28;20095;-78
2023/12/15 06:53:01;;;;;;;0.40;0.40;;;;;;;17.34;50.98;103217.72;5070725;28;20461;-78
2023/12/15 06:55:26;;;;;;;4.53;2.00;;;;;;;16.87;52.47;103218.53;5066763;28;20111;-78
2023/12/15 06:57:52;;;;;;;0.00;0.00;;;;;;;17.46;50.36;103225.63;5060056;28;20175;-78
2023/12/15 07:00:17;;;;;;;1.03;1.03;;;;;;;16.98;51.72;103224.75;5053647;28;20070;-78
2023/12/15 07:02:43;;;;;;;0.10;0.10;;;;;;;17.58;50.29;103223.84;5070979;28;20032;-78
2023/12/15 07:05:10;;;;;;;0.10;0.10;;;;;;;17.85;49.94;103222.91;5062702;28;20029;-77
2023/12/15 07:07:36;;;;;;;0.30;0.30;;;;;;;17.96;49.28;103225.56;5062317;28;20032;-77
2023/12/15 07:10:02;;;;;;;0.00;0.00;;;;;;;17.07;50.68;103235.31;5048976;28;20033;-77
2023/12/15 07:12:28;;;;;;;0.43;0.43;;;;;;;16.97;51.88;103230.91;5049980;28;20877;-78
2023/12/15 07:14:53;;;;;;;0.00;0.00;;;;;;;17.58;50.36;103223.84;5051255;28;20035;-78
2023/12/15 07:17:19;;;;;;;0.20;0.20;;;;;;;17.52;50.82;103229.16;5061154;28;20313;-78
2023/12/15 07:19:44;;;;;;;0.40;0.40;;;;;;;17.37;50.24;103225.63;5050313;28;20032;-78
2023/12/15 07:22:09;;;;;;;0.20;0.20;;;;;;;17.89;49.39;103232.59;5066478;28;20129;-78
2023/12/15 07:24:35;;;;;;;7.47;1.50;;;;;;;17.03;51.09;103236.19;5069436;28;20059;-78
2023/12/15 07:27:00;;;;;;;0.10;0.10;;;;;;;17.12;50.92;103236.22;5054437;28;20116;-78
2023/12/15 07:29:26;;;;;;;0.00;0.00;;;;;;;17.79;49.34;103244.06;5046876;28;20064;-79
2023/12/15 07:31:51;;;;;;;0.20;0.20;;;;;;;17.18;51.12;103250.31;5055843;28;20124;-80
2023/12/15 07:34:17;;;;;;;0.63;0.63;;;;;;;17.56;50.23;103252.06;5061293;28;20387;-80
2023/12/15 07:36:42;;;;;;;0.00;0.00;;;;;;;16.96;51.61;103260.84;5051248;28;20033;-80
2023/12/15 07:39:09;;;;;;;1.70;1.60;;;;;;;17.45;50.79;103250.31;5050424;28;20072;-80
2023/12/15 07:41:37;;;;;;;0.30;0.30;;;;;;;16.79;51.84;103253.72;5058991;28;20040;-79
2023/12/15 07:44:06;;;;;;;0.57;0.57;;;;;;;16.93;51.58;103260.84;5053094;28;20076;-80
2023/12/15 07:46:32;;;;;;;2.20;1.00;;;;;;;17.01;51.45;103263.47;5051107;28;20465;-79
2023/12/15 07:48:57;;;;;;;0.00;0.00;;;;;;;17.01;51.22;103269.66;5052255;28;20040;-80
2023/12/15 07:51:22;;;;;;;0.47;0.47;;;;;;;17.60;50.20;103269.69;5060826;28;20148;-79
2023/12/15 07:53:48;;;;;;;1.30;0.47;;;;;;;17.23;50.92;103285.56;5072087;28;20112;-79
2023/12/15 07:56:25;;;;;;;0.00;0.00;;;;;;;17.51;49.92;103291.72;5056412;28;20028;-79
2023/12/15 07:58:56;;;;;;;0.00;0.00;;;;;;;17.61;49.72;103287.31;5034929;28;20465;-80
2023/12/15 08:01:22;;;;;;;0.00;0.00;;;;;;;17.75;49.21;103300.50;5043565;28;20024;-80
2023/12/15 08:03:48;;;;;;;0.00;0.00;;;;;;;17.68;49.43;103294.38;5052544;28;20025;-79
2023/12/15 08:06:15;;;;;;;1.43;1.37;;;;;;;17.58;49.21;103303.19;5054637;28;20082;-79
2023/12/15 08:08:41;;;;;;;0.00;0.00;;;;;;;17.94;49.11;103311.97;5073932;28;20024;-79
2023/12/15 08:11:07;;;;;;;0.20;0.20;;;;;;;17.54;49.79;103317.28;5065706;28;20040;-79
2023/12/15 08:13:32;;;;;;;0.00;0.00;;;;;;;17.59;49.93;103315.53;5053722;28;20580;-79
2023/12/15 08:15:58;;;;;;;0.03;0.03;;;;;;;17.77;49.43;103317.28;5051176;28;20033;-79
2023/12/15 08:18:23;;;;;;;0.10;0.10;;;;;;;17.51;50.24;103325.22;5073613;28;20021;-80
2023/12/15 08:20:50;;;;;;;0.63;0.63;;;;;;;16.83;50.97;103322.41;5062365;28;20032;-79
2023/12/15 08:23:15;;;;;;;0.67;0.67;;;;;;;17.18;50.13;103332.22;5053881;28;20029;-79
2023/12/15 08:25:40;;;;;;;0.00;0.00;;;;;;;17.57;49.93;103336.69;5053943;28;20028;-79
2023/12/15 08:28:09;;;;;;;0.00;0.00;;;;;;;17.55;50.11;103341.06;5069757;28;20384;-79
2023/12/15 08:30:34;;;;;;;0.60;0.60;;;;;;;17.57;49.58;103343.72;5074361;28;20028;-79
2023/12/15 08:33:02;;;;;;;0.53;0.53;;;;;;;17.57;49.47;103355.19;5059486;28;20043;-79
2023/12/15 08:35:28;;;;;;;0.00;0.00;;;;;;;17.34;50.35;103356.91;5052710;28;20037;-79
2023/12/15 08:38:11;;;;;;;0.00;0.00;;;;;;;17.35;49.19;103354.28;5054105;28;20389;-79
2023/12/15 08:40:36;;;;;;;0.10;0.10;;;;;;;17.81;49.36;103354.28;5051843;28;20103;-79
2023/12/15 08:43:02;;;;;;;0.50;0.37;;;;;;;16.82;50.67;103363.78;5059817;28;20112;-78
2023/12/15 08:45:27;;;;;;;0.20;0.20;;;;;;;17.35;49.92;103370.16;5054360;28;20188;-78
2023/12/15 08:47:53;;;;;;;0.00;0.00;;;;;;;17.36;49.94;103366.59;5065901;28;20074;-78
2023/12/15 08:50:18;;;;;;;0.00;0.00;;;;;;;17.65;48.75;103363.13;5072953;28;20181;-79
2023/12/15 08:52:44;;;;;;;0.10;0.10;;;;;;;17.81;48.98;103371.94;5055866;28;20036;-79
2023/12/15 08:55:10;;;;;;;0.10;0.10;;;;;;;17.63;49.02;103370.19;5035002;28;20025;-79
2023/12/15 08:57:36;;;;;;;0.70;0.70;;;;;;;17.74;48.68;103379.00;5061527;28;20078;-79
2023/12/15 09:00:04;;;;;;;0.63;0.63;;;;;;;17.64;48.64;103383.41;5072798;28;20107;-79
2023/12/15 09:02:30;;;;;;;17.33;3.90;;;;;;;17.15;49.92;103393.00;5054823;28;20492;-79
2023/12/15 09:04:55;;;;;;;9.63;4.10;;;;;;;17.55;49.35;103382.50;5048473;28;20103;-78
2023/12/15 09:07:21;;;;;;;11.87;4.07;;;;;;;17.90;48.39;103389.56;5053615;28;20064;-79
2023/12/15 09:09:46;;;;;;;19.40;3.30;;;;;;;17.37;49.12;103394.81;5052439;28;20032;-79
2023/12/15 09:12:11;;;;;;;18.13;4.40;;;;;;;17.98;48.13;103403.72;5064809;28;20032;-78
2023/12/15 09:14:37;;;;;;;18.80;3.43;;;;;;;17.20;49.58;103405.34;5049185;28;20025;-79
2023/12/15 09:17:03;;;;;;;16.40;4.93;;;;;;;17.15;49.82;103414.16;5033191;28;20072;-79
2023/12/15 09:19:29;;;;;;;10.00;3.07;;;;;;;17.61;48.77;103409.84;5070246;28;20063;-79
2023/12/15 09:21:55;;;;;;;13.20;4.17;;;;;;;17.38;49.34;103417.75;5051164;28;20037;-78
2023/12/15 09:24:21;;;;;;;19.63;5.23;;;;;;;17.66;48.31;103417.78;5070025;28;20518;-78
2023/12/15 09:26:46;;;;;;;9.10;3.50;;;;;;;17.21;49.91;103435.31;5073078;28;20111;-79
2023/12/15 09:29:13;;;;;;;13.43;3.93;;;;;;;16.77;49.81;103448.31;5057872;28;20432;-79
2023/12/15 09:31:39;;;;;;;12.67;4.13;;;;;;;16.54;49.06;103457.81;5048344;28;20068;-79
2023/12/15 09:34:05;;;;;;;20.33;4.67;;;;;;;16.66;49.86;103452.63;5051196;28;20035;-78
2023/12/15 09:36:30;;;;;;;21.37;3.83;;;;;;;17.24;48.88;103457.34;5047169;28;20393;-79
2023/12/15 09:38:56;;;;;;;18.77;3.50;;;;;;;17.61;47.17;103465.38;5048927;28;20031;-79
2023/12/15 09:41:21;;;;;;;15.30;4.20;;;;;;;17.12;47.98;103471.38;5071995;28;20055;-78
2023/12/15 09:43:47;;;;;;;7.83;2.50;;;;;;;17.78;46.89;103465.41;5066498;28;20052;-79
2023/12/15 09:46:12;;;;;;;12.87;3.70;;;;;;;17.41;47.32;103467.97;5057758;28;20403;-79
2023/12/15 09:48:38;;;;;;;15.63;2.93;;;;;;;17.39;47.65;103472.38;5055408;28;20029;-78
2023/12/15 09:51:08;;;;;;;11.77;3.67;;;;;;;17.29;47.75;103479.38;5071078;28;20077;-78
2023/12/15 09:53:36;;;;;;;16.30;2.53;;;;;;;17.38;46.87;103478.53;5065079;28;20457;-78
2023/12/15 09:56:03;;;;;;;12.10;2.77;;;;;;;17.20;47.29;103487.28;5051128;28;20029;-78
2023/12/15 09:58:28;;;;;;;13.03;2.60;;;;;;;18.10;45.50;103498.97;5052528;28;20024;-79
2023/12/15 10:00:53;;;;;;;9.97;2.20;;;;;;;17.74;46.25;103508.59;5072017;28;20434;-79
2023/12/15 10:03:19;;;;;;;11.57;2.10;;;;;;;17.27;46.57;103517.28;5069463;28;20037;-78
2023/12/15 10:05:44;;;;;;;8.33;2.37;;;;;;;16.60;47.77;103526.53;5069385;28;20036;-78
2023/12/15 10:08:10;;;;;;;8.23;2.13;;;;;;;18.08;45.24;103527.22;5067879;28;20028;-78
2023/12/15 10:10:36;;;;;;;6.03;1.70;;;;;;;17.84;45.83;103535.09;5052616;28;20424;-79
2023/12/15 10:13:01;;;;;;;18.30;2.50;;;;;;;17.85;45.66;103528.91;5050521;28;20426;-79
2023/12/15 10:15:27;;;;;;;7.37;2.70;;;;;;;17.86;45.38;103535.94;5068256;28;20033;-78
2023/12/15 10:17:54;;;;;;;10.10;1.80;;;;;;;17.00;46.71;103536.50;5051963;28;20032;-78
2023/12/15 10:20:19;;;;;;;13.63;1.90;;;;;;;17.61;46.61;103541.19;5058209;28;20476;-79
2023/12/15 10:22:46;;;;;;;8.90;1.47;;;;;;;17.62;45.19;103548.25;5052008;28;20041;-79
2023/12/15 10:25:21;;;;;;;16.73;3.10;;;;;;;16.95;47.13;103545.28;5050777;28;20025;-78
2023/12/15 10:27:48;;;;;;;14.47;2.50;;;;;;;17.12;46.40;103548.03;5049201;28;20037;-78
2023/12/15 10:30:15;;;;;;;11.03;1.60;;;;;;;17.22;45.81;103548.06;5060272;28;20113;-79
2023/12/15 10:32:40;;;;;;;8.43;1.70;;;;;;;17.16;47.31;103561.25;5071220;28;20070;-77
2023/12/15 10:35:07;;;;;;;8.30;2.17;;;;;;;17.35;46.75;103555.19;5065339;28;20025;-78
2023/12/15 10:37:33;;;;;;;10.57;1.90;;;;;;;17.43;46.36;103553.47;5060238;28;20598;-78
2023/12/15 10:40:03;;;;;;;13.70;1.77;;;;;;;17.40;46.19;103552.56;5051198;28;20029;-79
2023/12/15 10:42:30;;;;;;;10.03;2.10;;;;;;;17.50;46.53;103564.06;5047453;28;20037;-78
2023/12/15 10:44:57;;;;;;;11.50;2.47;;;;;;;18.12;44.64;103571.34;5049671;28;20049;-78
2023/12/15 10:47:24;;;;;;;5.93;2.00;;;;;;;17.76;44.39;103573.00;5058058;28;20029;-78
2023/12/15 10:49:52;;;;;;;17.17;4.63;;;;;;;18.09;43.97;103587.22;5058086;28;20036;-78
2023/12/15 10:52:21;;;;;;;7.00;1.63;;;;;;;18.24;43.97;103588.13;5052920;28;20029;-79
2023/12/15 10:54:48;;;;;;;4.90;1.70;;;;;;;17.45;44.41;103591.38;5070033;28;20024;-78
2023/12/15 10:57:14;;;;;;;7.77;2.07;;;;;;;16.88;46.09;103600.66;5051851;28;20056;-78
2023/12/15 10:59:39;;;;;;;5.97;1.47;;;;;;;17.59;44.54;103595.84;5051765;28;20114;-78
2023/12/15 11:02:09;;;;;;;12.77;1.80;;;;;;;17.39;44.76;103601.03;5053146;28;20033;-78
2023/12/15 11:04:34;;;;;;;23.27;1.90;;;;;;;17.25;45.28;103590.38;5048972;28;20070;-78
2023/12/15 11:07:03;;;;;;;13.27;1.97;;;;;;;16.88;45.57;103587.47;5052563;28;22007;-79
2023/12/15 11:09:30;;;;;;;6.53;1.40;;;;;;;18.22;43.33;103587.25;5049588;28;20028;-79
2023/12/15 11:12:22;;;;;;;9.47;1.70;;;;;;;18.45;42.32;103581.94;5069861;28;20033;-78
2023/12/15 11:15:14;;;;;;;8.80;1.67;;;;;;;17.91;43.45;103573.91;5060699;28;20039;-78
2023/12/15 11:17:53;;;;;;;9.47;2.27;;;;;;;17.81;42.63;103565.94;5042828;28;20044;-78
2023/12/15 11:20:18;;;;;;;11.50;1.77;;;;;;;17.87;43.07;103559.75;5051528;28;20029;-78